sensor_id;sensor_type;location;lat;lon;timestamp;P1;durP1;ratioP1;P2;durP2;ratioP2
69835;SDS011;57132;51.972;4.450;2023-04-08T00:00:12;37.35;;;16.50;;
69835;SDS011;57132;51.972;4.450;2023-04-08T00:02:37;42.28;;;17.75;;
69835;SDS011;57132;51.972;4.450;2023-04-08T00:05:03;37.05;;;17.52;;
69835;SDS011;57132;51.972;4.450;2023-04-08T00:07:28;45.67;;;19.02;;
69835;SDS011;57132;51.972;4.450;2023-04-08T00:09:55;38.95;;;17.27;;
69835;SDS011;57132;51.972;4.450;2023-04-08T00:12:20;46.80;;;18.50;;
69835;SDS011;57132;51.972;4.450;2023-04-08T00:14:46;46.63;;;19.10;;
69835;SDS011;57132;51.972;4.450;2023-04-08T00:17:11;50.58;;;20.73;;
69835;SDS011;57132;51.972;4.450;2023-04-08T00:19:36;45.88;;;19.85;;
69835;SDS011;57132;51.972;4.450;2023-04-08T00:22:02;36.72;;;18.02;;
69835;SDS011;57132;51.972;4.450;2023-04-08T00:24:27;37.78;;;18.20;;
69835;SDS011;57132;51.972;4.450;2023-04-08T00:26:52;43.22;;;19.25;;
69835;SDS011;57132;51.972;4.450;2023-04-08T00:29:18;44.63;;;20.15;;
69835;SDS011;57132;51.972;4.450;2023-04-08T00:31:43;37.65;;;19.38;;
69835;SDS011;57132;51.972;4.450;2023-04-08T00:34:08;42.35;;;19.00;;
69835;SDS011;57132;51.972;4.450;2023-04-08T00:36:34;43.03;;;19.40;;
69835;SDS011;57132;51.972;4.450;2023-04-08T00:39:00;46.70;;;21.05;;
69835;SDS011;57132;51.972;4.450;2023-04-08T00:41:26;47.90;;;19.85;;
69835;SDS011;57132;51.972;4.450;2023-04-08T00:43:51;42.70;;;19.17;;
69835;SDS011;57132;51.972;4.450;2023-04-08T00:46:18;51.97;;;21.00;;
69835;SDS011;57132;51.972;4.450;2023-04-08T00:48:43;49.30;;;20.80;;
69835;SDS011;57132;51.972;4.450;2023-04-08T00:51:09;53.45;;;22.10;;
69835;SDS011;57132;51.972;4.450;2023-04-08T00:53:35;48.40;;;23.13;;
69835;SDS011;57132;51.972;4.450;2023-04-08T00:56:00;56.53;;;23.90;;
69835;SDS011;57132;51.972;4.450;2023-04-08T00:58:25;53.20;;;22.52;;
69835;SDS011;57132;51.972;4.450;2023-04-08T01:00:54;57.88;;;24.42;;
69835;SDS011;57132;51.972;4.450;2023-04-08T01:08:39;57.90;;;24.00;;
69835;SDS011;57132;51.972;4.450;2023-04-08T01:11:08;52.13;;;22.83;;
69835;SDS011;57132;51.972;4.450;2023-04-08T01:13:36;55.10;;;23.02;;
69835;SDS011;57132;51.972;4.450;2023-04-08T01:16:05;54.15;;;25.45;;
69835;SDS011;57132;51.972;4.450;2023-04-08T01:18:33;64.93;;;28.15;;
69835;SDS011;57132;51.972;4.450;2023-04-08T01:21:00;58.20;;;24.17;;
69835;SDS011;57132;51.972;4.450;2023-04-08T01:23:43;67.38;;;27.70;;
69835;SDS011;57132;51.972;4.450;2023-04-08T01:26:20;62.53;;;25.10;;
69835;SDS011;57132;51.972;4.450;2023-04-08T01:28:52;60.90;;;25.63;;
69835;SDS011;57132;51.972;4.450;2023-04-08T01:31:19;70.00;;;27.00;;
69835;SDS011;57132;51.972;4.450;2023-04-08T01:33:48;69.25;;;26.85;;
69835;SDS011;57132;51.972;4.450;2023-04-08T01:36:15;67.30;;;26.23;;
69835;SDS011;57132;51.972;4.450;2023-04-08T01:38:41;66.55;;;25.80;;
69835;SDS011;57132;51.972;4.450;2023-04-08T01:41:08;61.45;;;25.05;;
69835;SDS011;57132;51.972;4.450;2023-04-08T01:43:35;68.63;;;28.63;;
69835;SDS011;57132;51.972;4.450;2023-04-08T01:46:00;72.50;;;28.30;;
69835;SDS011;57132;51.972;4.450;2023-04-08T01:48:26;71.05;;;27.40;;
69835;SDS011;57132;51.972;4.450;2023-04-08T01:50:52;72.53;;;27.88;;
69835;SDS011;57132;51.972;4.450;2023-04-08T01:53:19;72.47;;;27.77;;
69835;SDS011;57132;51.972;4.450;2023-04-08T01:55:45;71.30;;;29.60;;
69835;SDS011;57132;51.972;4.450;2023-04-08T01:58:17;78.38;;;29.85;;
69835;SDS011;57132;51.972;4.450;2023-04-08T02:00:44;85.15;;;31.27;;
69835;SDS011;57132;51.972;4.450;2023-04-08T02:03:11;75.18;;;30.33;;
69835;SDS011;57132;51.972;4.450;2023-04-08T02:05:38;80.15;;;29.85;;
69835;SDS011;57132;51.972;4.450;2023-04-08T02:08:04;78.18;;;29.08;;
69835;SDS011;57132;51.972;4.450;2023-04-08T02:10:30;76.95;;;30.10;;
69835;SDS011;57132;51.972;4.450;2023-04-08T02:12:55;74.70;;;29.55;;
69835;SDS011;57132;51.972;4.450;2023-04-08T02:15:21;86.53;;;31.55;;
69835;SDS011;57132;51.972;4.450;2023-04-08T02:17:48;77.80;;;30.33;;
69835;SDS011;57132;51.972;4.450;2023-04-08T02:20:36;75.57;;;30.33;;
69835;SDS011;57132;51.972;4.450;2023-04-08T02:23:06;80.15;;;29.38;;
69835;SDS011;57132;51.972;4.450;2023-04-08T02:25:37;79.07;;;30.77;;
69835;SDS011;57132;51.972;4.450;2023-04-08T02:28:05;82.07;;;30.65;;
69835;SDS011;57132;51.972;4.450;2023-04-08T02:30:34;75.30;;;30.70;;
69835;SDS011;57132;51.972;4.450;2023-04-08T02:33:00;81.72;;;30.42;;
69835;SDS011;57132;51.972;4.450;2023-04-08T02:35:29;76.03;;;28.52;;
69835;SDS011;57132;51.972;4.450;2023-04-08T02:37:55;90.00;;;31.40;;
69835;SDS011;57132;51.972;4.450;2023-04-08T02:40:21;82.38;;;30.15;;
69835;SDS011;57132;51.972;4.450;2023-04-08T02:42:54;87.15;;;33.15;;
69835;SDS011;57132;51.972;4.450;2023-04-08T02:45:20;84.28;;;31.33;;
69835;SDS011;57132;51.972;4.450;2023-04-08T02:47:47;77.50;;;29.80;;
69835;SDS011;57132;51.972;4.450;2023-04-08T02:50:12;71.80;;;28.70;;
69835;SDS011;57132;51.972;4.450;2023-04-08T02:52:38;74.30;;;28.23;;
69835;SDS011;57132;51.972;4.450;2023-04-08T02:55:03;83.28;;;29.80;;
69835;SDS011;57132;51.972;4.450;2023-04-08T02:57:30;83.00;;;30.00;;
69835;SDS011;57132;51.972;4.450;2023-04-08T02:59:56;91.30;;;31.08;;
69835;SDS011;57132;51.972;4.450;2023-04-08T03:02:21;85.13;;;31.05;;
69835;SDS011;57132;51.972;4.450;2023-04-08T03:04:47;92.43;;;30.75;;
69835;SDS011;57132;51.972;4.450;2023-04-08T03:07:12;76.95;;;28.27;;
69835;SDS011;57132;51.972;4.450;2023-04-08T03:09:37;85.53;;;29.17;;
69835;SDS011;57132;51.972;4.450;2023-04-08T03:12:04;81.40;;;30.08;;
69835;SDS011;57132;51.972;4.450;2023-04-08T03:14:29;87.30;;;29.90;;
69835;SDS011;57132;51.972;4.450;2023-04-08T03:16:55;86.95;;;29.48;;
69835;SDS011;57132;51.972;4.450;2023-04-08T03:19:20;87.30;;;30.65;;
69835;SDS011;57132;51.972;4.450;2023-04-08T03:21:46;85.28;;;29.88;;
69835;SDS011;57132;51.972;4.450;2023-04-08T03:24:11;89.63;;;30.70;;
69835;SDS011;57132;51.972;4.450;2023-04-08T03:26:37;85.07;;;28.45;;
69835;SDS011;57132;51.972;4.450;2023-04-08T03:29:02;83.75;;;29.13;;
69835;SDS011;57132;51.972;4.450;2023-04-08T03:31:28;74.50;;;25.08;;
69835;SDS011;57132;51.972;4.450;2023-04-08T03:33:53;60.53;;;22.05;;
69835;SDS011;57132;51.972;4.450;2023-04-08T03:36:18;52.85;;;21.08;;
69835;SDS011;57132;51.972;4.450;2023-04-08T03:38:44;52.13;;;19.60;;
69835;SDS011;57132;51.972;4.450;2023-04-08T03:41:09;58.67;;;22.45;;
69835;SDS011;57132;51.972;4.450;2023-04-08T03:43:34;73.30;;;26.45;;
69835;SDS011;57132;51.972;4.450;2023-04-08T03:46:00;62.17;;;23.58;;
69835;SDS011;57132;51.972;4.450;2023-04-08T03:48:26;63.47;;;23.10;;
69835;SDS011;57132;51.972;4.450;2023-04-08T03:50:52;68.78;;;25.17;;
69835;SDS011;57132;51.972;4.450;2023-04-08T03:53:17;66.50;;;23.13;;
69835;SDS011;57132;51.972;4.450;2023-04-08T03:55:42;74.97;;;24.25;;
69835;SDS011;57132;51.972;4.450;2023-04-08T03:58:08;72.45;;;25.55;;
69835;SDS011;57132;51.972;4.450;2023-04-08T04:00:34;74.32;;;26.42;;
69835;SDS011;57132;51.972;4.450;2023-04-08T04:03:01;79.43;;;26.10;;
69835;SDS011;57132;51.972;4.450;2023-04-08T04:05:26;78.63;;;26.15;;
69835;SDS011;57132;51.972;4.450;2023-04-08T04:07:52;78.72;;;25.42;;
69835;SDS011;57132;51.972;4.450;2023-04-08T04:10:17;93.97;;;26.83;;
69835;SDS011;57132;51.972;4.450;2023-04-08T04:12:42;94.07;;;28.30;;
69835;SDS011;57132;51.972;4.450;2023-04-08T04:15:09;94.30;;;28.70;;
69835;SDS011;57132;51.972;4.450;2023-04-08T04:17:34;93.32;;;29.30;;
69835;SDS011;57132;51.972;4.450;2023-04-08T04:20:02;88.22;;;29.50;;
69835;SDS011;57132;51.972;4.450;2023-04-08T04:22:28;79.55;;;28.00;;
69835;SDS011;57132;51.972;4.450;2023-04-08T04:24:53;74.85;;;27.33;;
69835;SDS011;57132;51.972;4.450;2023-04-08T04:27:19;75.30;;;25.40;;
69835;SDS011;57132;51.972;4.450;2023-04-08T04:29:44;73.13;;;24.00;;
69835;SDS011;57132;51.972;4.450;2023-04-08T04:32:09;83.28;;;29.23;;
69835;SDS011;57132;51.972;4.450;2023-04-08T04:34:35;93.65;;;28.90;;
69835;SDS011;57132;51.972;4.450;2023-04-08T04:37:00;90.60;;;30.05;;
69835;SDS011;57132;51.972;4.450;2023-04-08T04:39:26;95.13;;;31.13;;
69835;SDS011;57132;51.972;4.450;2023-04-08T04:41:51;106.03;;;31.38;;
69835;SDS011;57132;51.972;4.450;2023-04-08T04:44:17;114.07;;;33.97;;
69835;SDS011;57132;51.972;4.450;2023-04-08T04:46:42;121.10;;;34.25;;
69835;SDS011;57132;51.972;4.450;2023-04-08T04:49:07;111.50;;;33.22;;
69835;SDS011;57132;51.972;4.450;2023-04-08T04:51:33;126.35;;;36.10;;
69835;SDS011;57132;51.972;4.450;2023-04-08T04:53:58;116.10;;;34.58;;
69835;SDS011;57132;51.972;4.450;2023-04-08T04:56:24;115.45;;;32.17;;
69835;SDS011;57132;51.972;4.450;2023-04-08T04:58:50;122.82;;;38.40;;
69835;SDS011;57132;51.972;4.450;2023-04-08T05:01:15;114.70;;;36.20;;
69835;SDS011;57132;51.972;4.450;2023-04-08T05:03:41;129.63;;;37.15;;
69835;SDS011;57132;51.972;4.450;2023-04-08T05:06:06;128.45;;;38.03;;
69835;SDS011;57132;51.972;4.450;2023-04-08T05:08:31;128.52;;;37.90;;
69835;SDS011;57132;51.972;4.450;2023-04-08T05:10:57;121.70;;;38.28;;
69835;SDS011;57132;51.972;4.450;2023-04-08T05:13:25;120.47;;;36.40;;
69835;SDS011;57132;51.972;4.450;2023-04-08T05:15:51;107.13;;;35.30;;
69835;SDS011;57132;51.972;4.450;2023-04-08T05:18:16;117.45;;;37.63;;
69835;SDS011;57132;51.972;4.450;2023-04-08T05:20:42;111.93;;;36.15;;
69835;SDS011;57132;51.972;4.450;2023-04-08T05:23:07;99.07;;;32.78;;
69835;SDS011;57132;51.972;4.450;2023-04-08T05:25:32;105.93;;;32.03;;
69835;SDS011;57132;51.972;4.450;2023-04-08T05:27:58;100.38;;;35.17;;
69835;SDS011;57132;51.972;4.450;2023-04-08T05:30:23;104.95;;;35.70;;
69835;SDS011;57132;51.972;4.450;2023-04-08T05:32:48;97.82;;;36.58;;
69835;SDS011;57132;51.972;4.450;2023-04-08T05:35:14;105.45;;;36.40;;
69835;SDS011;57132;51.972;4.450;2023-04-08T05:37:40;100.60;;;36.53;;
69835;SDS011;57132;51.972;4.450;2023-04-08T05:40:05;98.72;;;31.73;;
69835;SDS011;57132;51.972;4.450;2023-04-08T05:42:31;96.15;;;33.63;;
69835;SDS011;57132;51.972;4.450;2023-04-08T05:44:56;103.38;;;34.92;;
69835;SDS011;57132;51.972;4.450;2023-04-08T05:47:22;101.20;;;36.05;;
69835;SDS011;57132;51.972;4.450;2023-04-08T05:49:47;106.93;;;38.30;;
69835;SDS011;57132;51.972;4.450;2023-04-08T05:52:12;113.35;;;37.10;;
69835;SDS011;57132;51.972;4.450;2023-04-08T05:54:41;107.72;;;37.15;;
69835;SDS011;57132;51.972;4.450;2023-04-08T05:57:07;111.00;;;37.30;;
69835;SDS011;57132;51.972;4.450;2023-04-08T05:59:32;103.03;;;34.90;;
69835;SDS011;57132;51.972;4.450;2023-04-08T06:01:57;107.18;;;36.17;;
69835;SDS011;57132;51.972;4.450;2023-04-08T06:04:23;108.15;;;34.72;;
69835;SDS011;57132;51.972;4.450;2023-04-08T06:06:48;105.30;;;36.03;;
69835;SDS011;57132;51.972;4.450;2023-04-08T06:09:13;105.57;;;36.78;;
69835;SDS011;57132;51.972;4.450;2023-04-08T06:11:39;97.20;;;35.65;;
69835;SDS011;57132;51.972;4.450;2023-04-08T06:14:04;101.85;;;35.72;;
69835;SDS011;57132;51.972;4.450;2023-04-08T06:16:29;116.35;;;38.55;;
69835;SDS011;57132;51.972;4.450;2023-04-08T06:18:55;110.75;;;37.65;;
69835;SDS011;57132;51.972;4.450;2023-04-08T06:21:20;100.25;;;36.75;;
69835;SDS011;57132;51.972;4.450;2023-04-08T06:23:46;103.40;;;33.88;;
69835;SDS011;57132;51.972;4.450;2023-04-08T06:26:11;97.80;;;33.50;;
69835;SDS011;57132;51.972;4.450;2023-04-08T06:28:37;103.97;;;33.97;;
69835;SDS011;57132;51.972;4.450;2023-04-08T06:31:03;108.55;;;32.65;;
69835;SDS011;57132;51.972;4.450;2023-04-08T06:33:30;112.90;;;32.97;;
69835;SDS011;57132;51.972;4.450;2023-04-08T06:36:04;115.38;;;31.77;;
69835;SDS011;57132;51.972;4.450;2023-04-08T06:38:31;92.38;;;30.02;;
69835;SDS011;57132;51.972;4.450;2023-04-08T06:41:03;115.47;;;31.80;;
69835;SDS011;57132;51.972;4.450;2023-04-08T06:43:30;92.78;;;28.75;;
69835;SDS011;57132;51.972;4.450;2023-04-08T06:45:56;117.95;;;28.73;;
69835;SDS011;57132;51.972;4.450;2023-04-08T06:48:21;107.93;;;27.30;;
69835;SDS011;57132;51.972;4.450;2023-04-08T06:50:48;88.07;;;28.23;;
69835;SDS011;57132;51.972;4.450;2023-04-08T06:53:13;95.63;;;27.42;;
69835;SDS011;57132;51.972;4.450;2023-04-08T06:55:39;116.60;;;30.17;;
69835;SDS011;57132;51.972;4.450;2023-04-08T06:58:05;98.00;;;29.88;;
69835;SDS011;57132;51.972;4.450;2023-04-08T07:00:30;133.73;;;31.83;;
69835;SDS011;57132;51.972;4.450;2023-04-08T07:02:56;123.30;;;30.95;;
69835;SDS011;57132;51.972;4.450;2023-04-08T07:05:21;124.82;;;32.42;;
69835;SDS011;57132;51.972;4.450;2023-04-08T07:07:47;113.60;;;32.45;;
69835;SDS011;57132;51.972;4.450;2023-04-08T07:10:13;119.90;;;32.28;;
69835;SDS011;57132;51.972;4.450;2023-04-08T07:12:38;111.00;;;33.17;;
69835;SDS011;57132;51.972;4.450;2023-04-08T07:15:04;133.23;;;37.78;;
69835;SDS011;57132;51.972;4.450;2023-04-08T07:17:30;131.32;;;35.85;;
69835;SDS011;57132;51.972;4.450;2023-04-08T07:19:56;112.03;;;34.50;;
69835;SDS011;57132;51.972;4.450;2023-04-08T07:22:21;132.32;;;38.83;;
69835;SDS011;57132;51.972;4.450;2023-04-08T07:24:47;117.10;;;37.42;;
69835;SDS011;57132;51.972;4.450;2023-04-08T07:27:14;117.30;;;36.08;;
69835;SDS011;57132;51.972;4.450;2023-04-08T07:29:40;112.10;;;35.63;;
69835;SDS011;57132;51.972;4.450;2023-04-08T07:32:07;106.00;;;35.42;;
69835;SDS011;57132;51.972;4.450;2023-04-08T07:34:33;106.50;;;36.58;;
69835;SDS011;57132;51.972;4.450;2023-04-08T07:37:00;99.88;;;34.33;;
69835;SDS011;57132;51.972;4.450;2023-04-08T07:39:25;98.82;;;36.78;;
69835;SDS011;57132;51.972;4.450;2023-04-08T07:41:51;99.30;;;37.35;;
69835;SDS011;57132;51.972;4.450;2023-04-08T07:44:16;85.30;;;34.95;;
69835;SDS011;57132;51.972;4.450;2023-04-08T07:46:41;86.90;;;34.53;;
69835;SDS011;57132;51.972;4.450;2023-04-08T07:49:09;80.82;;;33.25;;
69835;SDS011;57132;51.972;4.450;2023-04-08T07:51:35;77.90;;;32.45;;
69835;SDS011;57132;51.972;4.450;2023-04-08T07:54:00;72.07;;;34.17;;
69835;SDS011;57132;51.972;4.450;2023-04-08T07:56:25;72.47;;;32.58;;
69835;SDS011;57132;51.972;4.450;2023-04-08T07:58:51;72.10;;;31.90;;
69835;SDS011;57132;51.972;4.450;2023-04-08T08:01:17;63.45;;;30.85;;
69835;SDS011;57132;51.972;4.450;2023-04-08T08:03:43;61.95;;;28.88;;
69835;SDS011;57132;51.972;4.450;2023-04-08T08:06:11;58.45;;;29.67;;
69835;SDS011;57132;51.972;4.450;2023-04-08T08:08:36;56.25;;;27.95;;
69835;SDS011;57132;51.972;4.450;2023-04-08T08:11:02;58.35;;;28.67;;
69835;SDS011;57132;51.972;4.450;2023-04-08T08:13:27;58.45;;;27.90;;
69835;SDS011;57132;51.972;4.450;2023-04-08T08:15:53;59.05;;;30.52;;
69835;SDS011;57132;51.972;4.450;2023-04-08T08:18:18;57.88;;;28.60;;
69835;SDS011;57132;51.972;4.450;2023-04-08T08:20:43;50.42;;;26.02;;
69835;SDS011;57132;51.972;4.450;2023-04-08T08:23:09;53.45;;;28.98;;
69835;SDS011;57132;51.972;4.450;2023-04-08T08:25:34;55.60;;;26.83;;
69835;SDS011;57132;51.972;4.450;2023-04-08T08:28:00;51.47;;;27.80;;
69835;SDS011;57132;51.972;4.450;2023-04-08T08:30:25;51.75;;;28.63;;
69835;SDS011;57132;51.972;4.450;2023-04-08T08:32:51;49.85;;;27.63;;
69835;SDS011;57132;51.972;4.450;2023-04-08T08:35:16;45.92;;;25.98;;
69835;SDS011;57132;51.972;4.450;2023-04-08T08:37:42;42.67;;;25.27;;
69835;SDS011;57132;51.972;4.450;2023-04-08T08:40:07;46.65;;;26.02;;
69835;SDS011;57132;51.972;4.450;2023-04-08T08:42:33;49.90;;;27.92;;
69835;SDS011;57132;51.972;4.450;2023-04-08T08:45:00;48.53;;;27.58;;
69835;SDS011;57132;51.972;4.450;2023-04-08T08:47:27;43.47;;;26.80;;
69835;SDS011;57132;51.972;4.450;2023-04-08T08:49:53;45.83;;;28.35;;
69835;SDS011;57132;51.972;4.450;2023-04-08T08:52:18;48.00;;;28.48;;
69835;SDS011;57132;51.972;4.450;2023-04-08T08:54:44;46.50;;;28.40;;
69835;SDS011;57132;51.972;4.450;2023-04-08T08:57:17;47.58;;;28.65;;
69835;SDS011;57132;51.972;4.450;2023-04-08T08:59:47;48.95;;;30.45;;
69835;SDS011;57132;51.972;4.450;2023-04-08T09:02:31;44.42;;;27.33;;
69835;SDS011;57132;51.972;4.450;2023-04-08T09:05:00;46.72;;;27.95;;
69835;SDS011;57132;51.972;4.450;2023-04-08T09:07:27;44.40;;;28.35;;
69835;SDS011;57132;51.972;4.450;2023-04-08T09:09:54;44.17;;;26.67;;
69835;SDS011;57132;51.972;4.450;2023-04-08T09:12:21;37.55;;;23.95;;
69835;SDS011;57132;51.972;4.450;2023-04-08T09:14:49;42.20;;;25.25;;
69835;SDS011;57132;51.972;4.450;2023-04-08T09:17:14;39.05;;;24.90;;
69835;SDS011;57132;51.972;4.450;2023-04-08T09:23:09;35.10;;;22.92;;
69835;SDS011;57132;51.972;4.450;2023-04-08T09:25:30;33.03;;;22.58;;
69835;SDS011;57132;51.972;4.450;2023-04-08T09:27:57;31.88;;;22.10;;
69835;SDS011;57132;51.972;4.450;2023-04-08T09:30:23;31.05;;;21.67;;
69835;SDS011;57132;51.972;4.450;2023-04-08T09:32:50;30.17;;;20.77;;
69835;SDS011;57132;51.972;4.450;2023-04-08T09:35:18;27.90;;;20.60;;
69835;SDS011;57132;51.972;4.450;2023-04-08T09:37:44;26.05;;;20.40;;
69835;SDS011;57132;51.972;4.450;2023-04-08T09:40:10;26.20;;;20.00;;
69835;SDS011;57132;51.972;4.450;2023-04-08T09:42:38;24.17;;;18.30;;
69835;SDS011;57132;51.972;4.450;2023-04-08T09:45:11;23.98;;;18.85;;
69835;SDS011;57132;51.972;4.450;2023-04-08T09:47:41;24.13;;;18.08;;
69835;SDS011;57132;51.972;4.450;2023-04-08T09:50:14;22.52;;;18.00;;
69835;SDS011;57132;51.972;4.450;2023-04-08T09:52:43;22.05;;;18.60;;
69835;SDS011;57132;51.972;4.450;2023-04-08T09:55:15;25.95;;;19.05;;
69835;SDS011;57132;51.972;4.450;2023-04-08T10:05:23;21.55;;;18.35;;
69835;SDS011;57132;51.972;4.450;2023-04-08T10:07:50;23.08;;;17.45;;
69835;SDS011;57132;51.972;4.450;2023-04-08T10:10:15;23.00;;;18.10;;
69835;SDS011;57132;51.972;4.450;2023-04-08T10:12:41;21.85;;;18.10;;
69835;SDS011;57132;51.972;4.450;2023-04-08T10:15:26;20.90;;;18.33;;
69835;SDS011;57132;51.972;4.450;2023-04-08T10:23:04;22.65;;;18.70;;
69835;SDS011;57132;51.972;4.450;2023-04-08T10:33:02;23.98;;;18.35;;
69835;SDS011;57132;51.972;4.450;2023-04-08T10:35:59;21.52;;;17.55;;
69835;SDS011;57132;51.972;4.450;2023-04-08T10:38:36;23.15;;;18.65;;
69835;SDS011;57132;51.972;4.450;2023-04-08T10:41:06;22.13;;;17.65;;
69835;SDS011;57132;51.972;4.450;2023-04-08T10:43:32;21.55;;;18.02;;
69835;SDS011;57132;51.972;4.450;2023-04-08T10:45:58;23.40;;;19.13;;
69835;SDS011;57132;51.972;4.450;2023-04-08T10:48:24;23.70;;;18.52;;
69835;SDS011;57132;51.972;4.450;2023-04-08T10:50:56;23.55;;;18.73;;
69835;SDS011;57132;51.972;4.450;2023-04-08T10:53:29;21.40;;;17.05;;
69835;SDS011;57132;51.972;4.450;2023-04-08T10:56:09;21.35;;;17.05;;
69835;SDS011;57132;51.972;4.450;2023-04-08T11:01:13;19.98;;;16.55;;
69835;SDS011;57132;51.972;4.450;2023-04-08T11:03:38;20.45;;;16.63;;
69835;SDS011;57132;51.972;4.450;2023-04-08T11:06:04;22.88;;;17.02;;
69835;SDS011;57132;51.972;4.450;2023-04-08T11:08:32;21.20;;;16.45;;
69835;SDS011;57132;51.972;4.450;2023-04-08T11:11:02;19.52;;;16.27;;
69835;SDS011;57132;51.972;4.450;2023-04-08T11:13:33;20.90;;;16.02;;
69835;SDS011;57132;51.972;4.450;2023-04-08T11:16:00;18.60;;;15.85;;
69835;SDS011;57132;51.972;4.450;2023-04-08T11:18:26;19.15;;;16.50;;
69835;SDS011;57132;51.972;4.450;2023-04-08T11:20:52;19.10;;;16.45;;
69835;SDS011;57132;51.972;4.450;2023-04-08T11:23:18;23.58;;;15.95;;
69835;SDS011;57132;51.972;4.450;2023-04-08T11:25:45;17.67;;;15.15;;
69835;SDS011;57132;51.972;4.450;2023-04-08T11:28:16;19.48;;;15.90;;
69835;SDS011;57132;51.972;4.450;2023-04-08T11:30:43;17.90;;;15.32;;
69835;SDS011;57132;51.972;4.450;2023-04-08T11:33:09;18.13;;;15.18;;
69835;SDS011;57132;51.972;4.450;2023-04-08T11:35:43;17.95;;;14.10;;
69835;SDS011;57132;51.972;4.450;2023-04-08T11:38:09;17.35;;;14.18;;
69835;SDS011;57132;51.972;4.450;2023-04-08T11:40:35;18.15;;;14.05;;
69835;SDS011;57132;51.972;4.450;2023-04-08T11:43:10;17.58;;;13.88;;
69835;SDS011;57132;51.972;4.450;2023-04-08T11:45:37;19.08;;;14.25;;
69835;SDS011;57132;51.972;4.450;2023-04-08T11:48:08;18.20;;;13.88;;
69835;SDS011;57132;51.972;4.450;2023-04-08T11:50:38;17.60;;;12.50;;
69835;SDS011;57132;51.972;4.450;2023-04-08T11:53:14;15.65;;;12.98;;
69835;SDS011;57132;51.972;4.450;2023-04-08T11:55:50;16.63;;;12.57;;
69835;SDS011;57132;51.972;4.450;2023-04-08T11:58:17;15.63;;;12.25;;
69835;SDS011;57132;51.972;4.450;2023-04-08T12:00:42;16.08;;;12.05;;
69835;SDS011;57132;51.972;4.450;2023-04-08T12:03:08;19.33;;;13.93;;
69835;SDS011;57132;51.972;4.450;2023-04-08T12:05:35;16.25;;;11.68;;
69835;SDS011;57132;51.972;4.450;2023-04-08T12:08:00;18.27;;;11.82;;
69835;SDS011;57132;51.972;4.450;2023-04-08T12:10:26;16.38;;;10.80;;
69835;SDS011;57132;51.972;4.450;2023-04-08T12:12:51;14.02;;;11.52;;
69835;SDS011;57132;51.972;4.450;2023-04-08T12:15:17;16.33;;;11.95;;
69835;SDS011;57132;51.972;4.450;2023-04-08T12:17:42;15.32;;;12.35;;
69835;SDS011;57132;51.972;4.450;2023-04-08T12:20:08;18.50;;;13.60;;
69835;SDS011;57132;51.972;4.450;2023-04-08T12:22:34;16.98;;;13.27;;
69835;SDS011;57132;51.972;4.450;2023-04-08T12:25:00;15.88;;;13.23;;
69835;SDS011;57132;51.972;4.450;2023-04-08T12:27:27;14.75;;;11.63;;
69835;SDS011;57132;51.972;4.450;2023-04-08T12:29:53;14.23;;;11.23;;
69835;SDS011;57132;51.972;4.450;2023-04-08T12:32:19;14.77;;;11.38;;
69835;SDS011;57132;51.972;4.450;2023-04-08T12:34:45;14.68;;;11.18;;
69835;SDS011;57132;51.972;4.450;2023-04-08T12:37:10;14.65;;;11.50;;
69835;SDS011;57132;51.972;4.450;2023-04-08T12:39:36;15.90;;;11.60;;
69835;SDS011;57132;51.972;4.450;2023-04-08T12:42:02;17.20;;;12.55;;
69835;SDS011;57132;51.972;4.450;2023-04-08T12:44:28;19.73;;;12.68;;
69835;SDS011;57132;51.972;4.450;2023-04-08T12:46:53;15.43;;;11.25;;
69835;SDS011;57132;51.972;4.450;2023-04-08T12:49:19;15.25;;;11.15;;
69835;SDS011;57132;51.972;4.450;2023-04-08T12:51:46;15.73;;;10.82;;
69835;SDS011;57132;51.972;4.450;2023-04-08T12:54:13;14.57;;;9.73;;
69835;SDS011;57132;51.972;4.450;2023-04-08T12:56:38;18.67;;;10.85;;
69835;SDS011;57132;51.972;4.450;2023-04-08T12:59:03;15.70;;;11.00;;
69835;SDS011;57132;51.972;4.450;2023-04-08T13:01:29;17.10;;;10.65;;
69835;SDS011;57132;51.972;4.450;2023-04-08T13:03:56;16.58;;;10.38;;
69835;SDS011;57132;51.972;4.450;2023-04-08T13:06:23;12.85;;;9.95;;
69835;SDS011;57132;51.972;4.450;2023-04-08T13:08:48;15.55;;;10.77;;
69835;SDS011;57132;51.972;4.450;2023-04-08T13:11:15;14.10;;;9.60;;
69835;SDS011;57132;51.972;4.450;2023-04-08T13:13:40;17.02;;;10.55;;
69835;SDS011;57132;51.972;4.450;2023-04-08T13:16:07;14.15;;;11.18;;
69835;SDS011;57132;51.972;4.450;2023-04-08T13:18:33;17.95;;;11.73;;
69835;SDS011;57132;51.972;4.450;2023-04-08T13:21:00;15.43;;;11.27;;
69835;SDS011;57132;51.972;4.450;2023-04-08T13:23:26;16.77;;;12.38;;
69835;SDS011;57132;51.972;4.450;2023-04-08T13:25:51;16.75;;;12.38;;
69835;SDS011;57132;51.972;4.450;2023-04-08T13:28:16;17.80;;;12.60;;
69835;SDS011;57132;51.972;4.450;2023-04-08T13:30:42;17.67;;;12.82;;
69835;SDS011;57132;51.972;4.450;2023-04-08T13:33:07;17.25;;;12.70;;
69835;SDS011;57132;51.972;4.450;2023-04-08T13:35:32;17.40;;;12.65;;
69835;SDS011;57132;51.972;4.450;2023-04-08T13:37:58;18.65;;;12.95;;
69835;SDS011;57132;51.972;4.450;2023-04-08T13:40:23;17.45;;;13.02;;
69835;SDS011;57132;51.972;4.450;2023-04-08T13:42:49;15.95;;;12.70;;
69835;SDS011;57132;51.972;4.450;2023-04-08T13:45:14;18.02;;;12.27;;
69835;SDS011;57132;51.972;4.450;2023-04-08T13:47:40;17.48;;;12.13;;
69835;SDS011;57132;51.972;4.450;2023-04-08T13:50:06;17.38;;;12.13;;
69835;SDS011;57132;51.972;4.450;2023-04-08T13:52:32;16.52;;;11.40;;
69835;SDS011;57132;51.972;4.450;2023-04-08T13:54:57;17.27;;;11.73;;
69835;SDS011;57132;51.972;4.450;2023-04-08T13:57:23;19.25;;;13.10;;
69835;SDS011;57132;51.972;4.450;2023-04-08T13:59:48;20.50;;;12.63;;
69835;SDS011;57132;51.972;4.450;2023-04-08T14:02:14;19.63;;;13.48;;
69835;SDS011;57132;51.972;4.450;2023-04-08T14:04:39;18.02;;;12.30;;
69835;SDS011;57132;51.972;4.450;2023-04-08T14:07:04;16.90;;;12.32;;
69835;SDS011;57132;51.972;4.450;2023-04-08T14:09:30;18.10;;;12.15;;
69835;SDS011;57132;51.972;4.450;2023-04-08T14:11:55;14.38;;;11.00;;
69835;SDS011;57132;51.972;4.450;2023-04-08T14:14:21;17.77;;;11.55;;
69835;SDS011;57132;51.972;4.450;2023-04-08T14:16:46;17.90;;;11.55;;
69835;SDS011;57132;51.972;4.450;2023-04-08T14:19:12;15.85;;;11.40;;
69835;SDS011;57132;51.972;4.450;2023-04-08T14:21:38;15.88;;;10.48;;
69835;SDS011;57132;51.972;4.450;2023-04-08T14:24:03;17.15;;;11.75;;
69835;SDS011;57132;51.972;4.450;2023-04-08T14:26:29;15.95;;;11.45;;
69835;SDS011;57132;51.972;4.450;2023-04-08T14:28:57;19.48;;;12.07;;
69835;SDS011;57132;51.972;4.450;2023-04-08T14:31:22;16.45;;;11.60;;
69835;SDS011;57132;51.972;4.450;2023-04-08T14:33:47;15.80;;;10.77;;
69835;SDS011;57132;51.972;4.450;2023-04-08T14:36:13;14.68;;;9.57;;
69835;SDS011;57132;51.972;4.450;2023-04-08T14:38:38;16.50;;;10.70;;
69835;SDS011;57132;51.972;4.450;2023-04-08T14:41:03;19.17;;;11.40;;
69835;SDS011;57132;51.972;4.450;2023-04-08T14:43:30;16.55;;;11.27;;
69835;SDS011;57132;51.972;4.450;2023-04-08T14:45:55;16.73;;;10.35;;